createdAt,value
2018-07-22T00:00:30.333Z,26.60
2018-07-22T00:03:00.644Z,23.87
2018-07-22T00:05:30.643Z,24.57
2018-07-22T00:08:01.404Z,24.03
2018-07-22T00:10:31.648Z,26.23
2018-07-22T00:13:01.873Z,27.93
2018-07-22T00:15:31.728Z,26.00
2018-07-22T00:18:07.904Z,26.50
2018-07-22T00:20:37.794Z,25.63
2018-07-22T00:23:08.127Z,27.63
2018-07-22T00:25:37.938Z,24.80
2018-07-22T00:28:13.021Z,24.80
2018-07-22T00:30:43.644Z,23.70
2018-07-22T00:33:13.917Z,25.27
2018-07-22T00:35:43.913Z,28.90
2018-07-22T00:38:17.538Z,24.97
2018-07-22T00:40:55.443Z,24.73
2018-07-22T00:43:28.719Z,23.10
2018-07-22T00:45:58.785Z,25.23
2018-07-22T00:48:28.948Z,23.10
2018-07-22T00:50:58.819Z,23.77
2018-07-22T00:53:28.734Z,22.77
2018-07-22T00:56:01.332Z,22.37
2018-07-22T00:58:37.537Z,21.07
2018-07-22T01:01:09.640Z,23.10
2018-07-22T01:03:42.717Z,21.87
2018-07-22T01:06:14.336Z,21.80
2018-07-22T01:08:44.352Z,21.80
2018-07-22T01:11:14.664Z,21.43
2018-07-22T01:13:44.855Z,21.00
2018-07-22T01:16:17.680Z,23.57
2018-07-22T01:18:48.472Z,20.80
2018-07-22T01:21:18.764Z,20.43
2018-07-22T01:23:48.984Z,20.67
2018-07-22T01:26:19.135Z,21.13
2018-07-22T01:28:48.928Z,21.27
2018-07-22T01:31:19.013Z,21.97
2018-07-22T01:33:49.200Z,18.93
2018-07-22T01:36:19.230Z,19.27
2018-07-22T01:38:49.175Z,18.23
2018-07-22T01:41:19.006Z,19.70
2018-07-22T01:43:48.952Z,19.13
2018-07-22T01:46:18.972Z,19.73
2018-07-22T01:48:48.483Z,17.77
2018-07-22T01:51:19.692Z,19.77
2018-07-22T01:53:50.866Z,20.20
2018-07-22T01:56:21.133Z,18.60
2018-07-22T01:58:51.148Z,18.10
2018-07-22T02:01:21.300Z,18.90
2018-07-22T02:03:51.192Z,18.97
2018-07-22T02:06:21.180Z,17.20
2018-07-22T02:08:51.119Z,18.03
2018-07-22T02:11:21.036Z,18.30
2018-07-22T02:13:51.161Z,17.80
2018-07-22T02:16:21.283Z,18.77
2018-07-22T02:18:51.144Z,18.00
2018-07-22T02:21:21.194Z,17.80
2018-07-22T02:23:51.262Z,19.30
2018-07-22T02:26:21.462Z,16.90
2018-07-22T02:28:51.279Z,18.13
2018-07-22T02:31:21.067Z,17.60
2018-07-22T02:33:51.314Z,17.40
2018-07-22T02:36:21.630Z,17.67
2018-07-22T02:38:51.915Z,16.47
2018-07-22T02:41:22.270Z,15.70
2018-07-22T02:43:52.586Z,17.00
2018-07-22T02:46:22.753Z,19.03
2018-07-22T02:48:53.418Z,17.63
2018-07-22T02:51:23.619Z,17.07
2018-07-22T02:53:53.516Z,17.57
2018-07-22T02:56:23.675Z,17.17
2018-07-22T02:58:53.614Z,18.83
2018-07-22T03:01:24.277Z,17.47
2018-07-22T03:03:53.498Z,17.53
2018-07-22T03:06:23.484Z,18.30
2018-07-22T03:08:53.631Z,16.67
2018-07-22T03:11:23.811Z,16.87
2018-07-22T03:13:53.775Z,17.93
2018-07-22T03:16:23.835Z,17.70
2018-07-22T03:18:53.755Z,17.77
2018-07-22T03:21:23.994Z,16.63
2018-07-22T03:23:54.134Z,20.37
2018-07-22T03:26:24.194Z,16.20
2018-07-22T03:28:54.555Z,17.23
2018-07-22T03:31:24.775Z,16.67
2018-07-22T03:33:54.638Z,17.63
2018-07-22T03:36:24.687Z,15.97
2018-07-22T03:38:54.484Z,17.23
2018-07-22T03:41:26.279Z,18.00
2018-07-22T03:43:56.244Z,15.67
2018-07-22T03:46:26.256Z,17.13
2018-07-22T03:48:56.316Z,16.27
2018-07-22T03:51:26.616Z,17.87
2018-07-22T03:53:56.619Z,16.27
2018-07-22T03:56:26.578Z,16.60
2018-07-22T03:58:56.897Z,17.43
2018-07-22T04:01:26.820Z,17.37
2018-07-22T04:03:56.706Z,16.43
2018-07-22T04:06:27.095Z,16.97
2018-07-22T04:08:57.307Z,15.70
2018-07-22T04:11:27.353Z,16.30
2018-07-22T04:13:57.193Z,16.60
2018-07-22T04:16:27.425Z,15.87
2018-07-22T04:18:57.471Z,16.67
2018-07-22T04:21:27.421Z,16.40
2018-07-22T04:23:57.476Z,18.23
2018-07-22T04:26:27.479Z,15.50
2018-07-22T04:28:57.654Z,18.50
2018-07-22T04:31:27.587Z,17.90
2018-07-22T04:33:57.792Z,16.40
2018-07-22T04:36:27.881Z,18.47
2018-07-22T04:38:57.728Z,17.60
2018-07-22T04:41:27.836Z,17.37
2018-07-22T04:43:57.764Z,20.37
2018-07-22T04:46:27.868Z,19.03
2018-07-22T04:48:58.022Z,21.03
2018-07-22T04:51:28.199Z,19.17
2018-07-22T04:53:58.256Z,18.90
2018-07-22T04:56:28.592Z,17.83
2018-07-22T04:58:58.777Z,18.43
2018-07-22T05:01:28.883Z,17.83
2018-07-22T05:03:59.164Z,18.40
2018-07-22T05:06:29.018Z,17.03
2018-07-22T05:08:59.045Z,17.83
2018-07-22T05:11:29.189Z,17.70
2018-07-22T05:13:59.305Z,17.07
2018-07-22T05:16:29.422Z,17.43
2018-07-22T05:18:59.556Z,18.60
2018-07-22T05:21:29.801Z,17.20
2018-07-22T05:24:00.037Z,17.77
2018-07-22T05:26:30.453Z,16.73
2018-07-22T05:29:00.447Z,16.67
2018-07-22T05:31:30.504Z,19.30
2018-07-22T05:34:00.880Z,18.40
2018-07-22T05:36:30.986Z,17.93
2018-07-22T05:39:01.131Z,16.60
2018-07-22T05:41:31.358Z,18.07
2018-07-22T05:44:01.229Z,16.90
2018-07-22T05:46:32.083Z,16.37
2018-07-22T05:49:02.182Z,17.10
2018-07-22T05:51:32.467Z,18.17
2018-07-22T05:54:02.629Z,17.70
2018-07-22T05:56:32.625Z,18.20
2018-07-22T05:59:02.995Z,16.60
2018-07-22T06:01:33.174Z,17.00
2018-07-22T06:04:03.196Z,19.40
2018-07-22T06:06:33.304Z,18.40
2018-07-22T06:09:03.594Z,18.60
2018-07-22T06:11:33.695Z,18.60
2018-07-22T06:14:04.088Z,17.87
2018-07-22T06:16:34.826Z,18.47
2018-07-22T06:19:05.341Z,17.87
2018-07-22T06:21:35.577Z,19.03
2018-07-22T06:24:05.932Z,18.60
2018-07-22T06:26:35.992Z,19.17
2018-07-22T06:29:06.651Z,18.47
2018-07-22T06:31:36.744Z,20.10
2018-07-22T06:34:07.068Z,18.53
2018-07-22T06:36:37.190Z,18.07
2018-07-22T06:39:10.858Z,18.90
2018-07-22T06:41:43.250Z,17.90
2018-07-22T06:44:16.165Z,19.50
2018-07-22T06:46:46.466Z,19.83
2018-07-22T06:49:17.177Z,23.07
2018-07-22T06:51:47.514Z,19.77
2018-07-22T06:54:17.648Z,20.63
2018-07-22T06:56:48.369Z,21.03
2018-07-22T06:59:18.611Z,21.47
2018-07-22T07:01:48.993Z,22.33
2018-07-22T07:04:19.421Z,20.30
2018-07-22T07:06:49.891Z,21.00
2018-07-22T07:09:20.716Z,20.10
2018-07-22T07:11:51.219Z,21.90
2018-07-22T07:14:22.988Z,20.03
2018-07-22T07:16:53.017Z,19.83
2018-07-22T07:19:22.491Z,20.97
2018-07-22T07:21:52.706Z,21.80
2018-07-22T07:24:22.615Z,20.57
2018-07-22T07:26:53.170Z,20.20
2018-07-22T07:29:23.789Z,20.13
2018-07-22T07:31:54.259Z,21.47
2018-07-22T07:34:24.922Z,20.13
2018-07-22T07:36:55.641Z,19.97
2018-07-22T07:39:25.887Z,19.07
2018-07-22T07:41:56.178Z,19.03
2018-07-22T07:44:26.553Z,19.27
2018-07-22T07:46:57.081Z,18.70
2018-07-22T07:49:27.205Z,18.80
2018-07-22T07:51:57.619Z,18.37
2018-07-22T07:54:27.961Z,18.00
2018-07-22T07:56:57.434Z,18.17
2018-07-22T07:59:27.656Z,19.80
2018-07-22T08:01:57.962Z,25.70
2018-07-22T08:04:28.198Z,18.80
2018-07-22T08:06:58.459Z,18.43
2018-07-22T08:09:28.225Z,19.13
2018-07-22T08:11:58.471Z,18.20
2018-07-22T08:14:28.959Z,18.63
2018-07-22T08:16:59.701Z,17.10
2018-07-22T08:19:30.363Z,17.90
2018-07-22T08:22:00.758Z,18.27
2018-07-22T08:24:31.226Z,15.40
2018-07-22T08:27:01.686Z,16.17
2018-07-22T08:29:34.090Z,18.77
2018-07-22T08:32:05.676Z,16.33
2018-07-22T08:34:36.188Z,16.20
2018-07-22T08:37:06.526Z,19.93
2018-07-22T08:39:37.114Z,15.90
2018-07-22T08:42:07.430Z,14.53
2018-07-22T08:44:37.894Z,15.20
2018-07-22T08:47:08.209Z,15.67
2018-07-22T08:49:38.860Z,16.83
2018-07-22T08:52:09.273Z,15.60
2018-07-22T08:54:39.768Z,14.18
2018-07-22T08:57:10.322Z,15.70
2018-07-22T08:59:40.993Z,14.33
2018-07-22T09:02:11.200Z,14.30
2018-07-22T09:04:41.661Z,15.58
2018-07-22T09:07:12.301Z,15.38
2018-07-22T09:09:42.346Z,15.32
2018-07-22T09:12:13.847Z,19.12
2018-07-22T09:14:43.414Z,15.05
2018-07-22T09:17:15.160Z,16.07
2018-07-22T09:19:45.747Z,14.70
2018-07-22T09:22:15.293Z,13.95
2018-07-22T09:24:45.595Z,13.75
2018-07-22T09:27:16.794Z,13.13
2018-07-22T09:29:46.847Z,13.53
2018-07-22T09:32:16.994Z,13.03
2018-07-22T09:34:47.231Z,14.43
2018-07-22T09:37:17.575Z,13.65
2018-07-22T09:39:47.842Z,13.53
2018-07-22T09:42:18.172Z,15.95
2018-07-22T09:44:48.607Z,13.18
2018-07-22T09:47:18.902Z,14.23
2018-07-22T09:49:49.517Z,13.32
2018-07-22T09:52:19.187Z,13.50
2018-07-22T09:54:49.581Z,14.07
2018-07-22T09:57:19.949Z,17.50
2018-07-22T09:59:50.943Z,14.40
2018-07-22T10:02:21.366Z,13.55
2018-07-22T10:04:51.897Z,14.20
2018-07-22T10:07:22.296Z,14.07
2018-07-22T10:09:52.994Z,13.00
2018-07-22T10:12:24.336Z,14.00
2018-07-22T10:14:54.818Z,13.60
2018-07-22T10:17:24.514Z,13.22
2018-07-22T10:19:54.866Z,13.45
2018-07-22T10:22:25.353Z,12.53
2018-07-22T10:24:56.064Z,12.28
2018-07-22T10:27:26.620Z,11.97
2018-07-22T10:29:57.297Z,13.20
2018-07-22T10:32:27.850Z,12.50
2018-07-22T10:34:58.195Z,10.90
2018-07-22T10:37:29.594Z,12.00
2018-07-22T10:39:59.942Z,12.63
2018-07-22T10:42:30.300Z,12.53
2018-07-22T10:45:00.701Z,12.28
2018-07-22T10:47:31.069Z,12.98
2018-07-22T10:50:01.329Z,11.65
2018-07-22T10:52:31.844Z,12.15
2018-07-22T10:55:02.096Z,11.78
2018-07-22T10:57:32.309Z,12.73
2018-07-22T11:00:02.710Z,12.65
2018-07-22T11:02:33.060Z,14.20
2018-07-22T11:05:04.246Z,12.58
2018-07-22T11:07:34.784Z,13.05
2018-07-22T11:10:05.804Z,13.45
2018-07-22T11:12:36.190Z,13.03
2018-07-22T11:15:07.431Z,14.68
2018-07-22T11:17:37.679Z,14.05
2018-07-22T11:20:08.022Z,12.60
2018-07-22T11:22:39.355Z,12.95
2018-07-22T11:25:09.866Z,11.73
2018-07-22T11:27:40.360Z,12.63
2018-07-22T11:30:11.023Z,13.72
2018-07-22T11:32:41.486Z,13.32
2018-07-22T11:35:11.880Z,12.37
2018-07-22T11:37:42.929Z,12.95
2018-07-22T11:40:13.185Z,13.72
2018-07-22T11:42:43.718Z,13.70
2018-07-22T11:45:13.510Z,12.30
2018-07-22T11:47:43.906Z,13.15
2018-07-22T11:50:14.514Z,13.45
2018-07-22T11:52:44.822Z,12.40
2018-07-22T11:55:15.769Z,13.13
2018-07-22T11:57:46.405Z,13.30
2018-07-22T12:00:17.142Z,12.45
2018-07-22T12:02:47.685Z,12.70
2018-07-22T12:05:18.403Z,13.25
2018-07-22T12:07:49.275Z,13.20
2018-07-22T12:10:19.468Z,13.75
2018-07-22T12:12:49.958Z,12.98
2018-07-22T12:15:20.214Z,13.18
2018-07-22T12:17:50.550Z,13.53
2018-07-22T12:20:20.831Z,14.03
2018-07-22T12:22:50.802Z,13.20
2018-07-22T12:25:21.375Z,13.68
2018-07-22T12:27:51.120Z,14.18
2018-07-22T12:30:23.344Z,13.88
2018-07-22T12:32:53.885Z,14.68
2018-07-22T12:35:24.747Z,12.73
2018-07-22T12:37:55.366Z,13.10
2018-07-22T12:40:25.715Z,12.47
2018-07-22T12:42:56.274Z,13.40
2018-07-22T12:45:26.639Z,12.68
2018-07-22T12:47:56.800Z,14.35
2018-07-22T12:50:27.233Z,13.30
2018-07-22T12:52:58.375Z,14.05
2018-07-22T12:55:28.802Z,13.70
2018-07-22T12:57:59.336Z,14.05
2018-07-22T13:00:30.213Z,14.45
2018-07-22T13:03:02.289Z,13.78
2018-07-22T13:05:32.901Z,14.65
2018-07-22T13:08:02.695Z,14.18
2018-07-22T13:10:32.763Z,14.05
2018-07-22T13:13:03.071Z,14.25
2018-07-22T13:15:33.465Z,14.03
2018-07-22T13:18:03.528Z,14.15
2018-07-22T13:20:33.394Z,14.80
2018-07-22T13:23:03.775Z,14.23
2018-07-22T13:25:34.224Z,14.30
2018-07-22T13:28:04.749Z,13.68
2018-07-22T13:30:34.941Z,15.10
2018-07-22T13:33:05.737Z,14.63
2018-07-22T13:35:36.236Z,13.88
2018-07-22T13:38:06.573Z,14.80
2018-07-22T13:40:36.852Z,13.50
2018-07-22T13:43:07.002Z,14.00
2018-07-22T13:45:37.409Z,16.45
2018-07-22T13:48:07.846Z,16.32
2018-07-22T13:50:38.884Z,14.95
2018-07-22T13:53:09.383Z,14.03
2018-07-22T13:55:39.841Z,13.90
2018-07-22T13:58:10.190Z,14.00
2018-07-22T14:00:41.551Z,13.55
2018-07-22T14:03:12.280Z,12.98
2018-07-22T14:05:42.510Z,13.83
2018-07-22T14:08:12.899Z,14.25
2018-07-22T14:10:43.150Z,14.45
2018-07-22T14:13:14.146Z,14.15
2018-07-22T14:15:44.350Z,13.03
2018-07-22T14:18:15.742Z,13.65
2018-07-22T14:20:46.098Z,14.47
2018-07-22T14:23:16.865Z,14.03
2018-07-22T14:25:47.947Z,14.87
2018-07-22T14:28:18.280Z,18.10
2018-07-22T14:30:48.497Z,14.70
2018-07-22T14:33:18.714Z,14.70
2018-07-22T14:35:50.095Z,15.55
2018-07-22T14:38:20.282Z,15.63
2018-07-22T14:40:50.960Z,14.10
2018-07-22T14:43:22.206Z,15.20
2018-07-22T14:45:52.682Z,14.33
2018-07-22T14:48:23.322Z,15.23
2018-07-22T14:50:54.661Z,15.73
2018-07-22T14:53:25.222Z,13.90
2018-07-22T14:55:55.745Z,30.07
2018-07-22T14:58:26.140Z,15.63
2018-07-22T15:00:56.533Z,17.67
2018-07-22T15:03:26.724Z,14.43
2018-07-22T15:05:57.354Z,13.67
2018-07-22T15:08:27.888Z,14.80
2018-07-22T15:10:58.363Z,14.23
2018-07-22T15:13:29.054Z,14.37
2018-07-22T15:15:59.516Z,14.20
2018-07-22T15:18:29.874Z,14.70
2018-07-22T15:21:00.422Z,13.43
2018-07-22T15:23:31.076Z,13.43
2018-07-22T15:26:01.465Z,16.47
2018-07-22T15:28:31.989Z,16.87
2018-07-22T15:31:02.329Z,17.60
2018-07-22T15:33:32.767Z,14.30
2018-07-22T15:36:02.477Z,15.00
2018-07-22T15:38:32.293Z,15.17
2018-07-22T15:41:03.861Z,17.83
2018-07-22T15:43:34.332Z,17.10
2018-07-22T15:46:04.829Z,14.07
2018-07-22T15:48:35.464Z,14.23
2018-07-22T15:51:06.389Z,13.37
2018-07-22T15:53:36.786Z,16.07
2018-07-22T15:56:07.520Z,14.03
2018-07-22T15:58:38.150Z,16.80
2018-07-22T16:01:08.676Z,15.60
2018-07-22T16:03:39.047Z,16.87
2018-07-22T16:06:09.792Z,14.73
2018-07-22T16:08:41.206Z,15.40
2018-07-22T16:11:11.871Z,15.80
2018-07-22T16:13:42.495Z,14.60
2018-07-22T16:16:13.716Z,27.07
2018-07-22T16:18:44.171Z,14.03
2018-07-22T16:21:14.648Z,15.70
2018-07-22T16:23:45.242Z,15.33
2018-07-22T16:26:16.041Z,15.87
2018-07-22T16:28:46.688Z,15.30
2018-07-22T16:31:17.146Z,15.60
2018-07-22T16:33:47.481Z,15.73
2018-07-22T16:36:18.099Z,16.03
2018-07-22T16:38:48.557Z,15.60
2018-07-22T16:41:19.042Z,17.63
2018-07-22T16:43:49.193Z,16.87
2018-07-22T16:46:19.618Z,14.97
2018-07-22T16:48:50.537Z,15.67
2018-07-22T16:51:20.949Z,15.77
2018-07-22T16:53:51.445Z,16.17
2018-07-22T16:56:22.063Z,14.47
2018-07-22T16:58:53.223Z,16.13
2018-07-22T17:01:23.650Z,16.00
2018-07-22T17:03:53.903Z,13.93
2018-07-22T17:06:24.319Z,15.90
2018-07-22T17:08:55.274Z,16.10
2018-07-22T17:11:25.888Z,13.90
2018-07-22T17:13:57.842Z,14.57
2018-07-22T17:16:28.385Z,14.47
2018-07-22T17:18:58.712Z,14.27
2018-07-22T17:21:29.691Z,15.07
2018-07-22T17:24:00.341Z,13.43
2018-07-22T17:26:30.359Z,13.73
2018-07-22T17:29:00.773Z,13.90
2018-07-22T17:31:31.149Z,13.80
2018-07-22T17:34:01.583Z,14.90
2018-07-22T17:36:31.887Z,13.80
2018-07-22T17:39:02.325Z,15.03
2018-07-22T17:41:32.949Z,15.07
2018-07-22T17:44:04.720Z,15.03
2018-07-22T17:46:35.313Z,15.47
2018-07-22T17:49:05.859Z,16.83
2018-07-22T17:51:36.759Z,16.17
2018-07-22T17:54:07.413Z,15.60
2018-07-22T17:56:37.761Z,15.03
2018-07-22T17:59:08.134Z,14.70
2018-07-22T18:01:38.266Z,14.80
2018-07-22T18:04:07.697Z,13.33
2018-07-22T18:06:39.287Z,14.40
2018-07-22T18:09:10.564Z,15.87
2018-07-22T18:11:40.230Z,15.67
2018-07-22T18:14:10.552Z,15.53
2018-07-22T18:16:40.310Z,14.20
2018-07-22T18:19:11.193Z,14.20
2018-07-22T18:21:41.644Z,13.43
2018-07-22T18:24:12.162Z,14.47
2018-07-22T18:26:42.830Z,14.10
2018-07-22T18:29:12.741Z,14.10
2018-07-22T18:31:43.249Z,14.50
2018-07-22T18:34:13.999Z,15.40
2018-07-22T18:36:44.855Z,14.13
2018-07-22T18:39:15.593Z,12.80
2018-07-22T18:41:46.977Z,50.47
2018-07-22T18:44:17.619Z,34.77
2018-07-22T18:46:48.033Z,17.90
2018-07-22T18:49:18.307Z,14.07
2018-07-22T18:51:48.665Z,13.97
2018-07-22T18:54:19.233Z,14.73
2018-07-22T18:56:49.892Z,15.47
2018-07-22T18:59:20.775Z,15.27
2018-07-22T19:01:51.366Z,16.70
2018-07-22T19:04:21.254Z,16.73
2018-07-22T19:06:51.695Z,15.87
2018-07-22T19:09:23.096Z,15.53
2018-07-22T19:11:53.303Z,16.27
2018-07-22T19:14:24.125Z,16.23
2018-07-22T19:16:54.452Z,15.93
2018-07-22T19:19:25.609Z,16.87
2018-07-22T19:21:56.592Z,16.70
2018-07-22T19:24:27.024Z,16.30
2018-07-22T19:26:57.457Z,17.63
2018-07-22T19:29:27.470Z,17.07
2018-07-22T19:31:58.840Z,17.40
2018-07-22T19:34:29.526Z,17.00
2018-07-22T19:37:00.042Z,17.10
2018-07-22T19:39:30.590Z,17.40
2018-07-22T19:42:01.079Z,16.53
2018-07-22T19:44:31.576Z,16.53
2018-07-22T19:47:01.989Z,18.80
2018-07-22T19:49:33.651Z,16.30
2018-07-22T19:52:03.154Z,17.17
2018-07-22T19:54:33.640Z,15.40
2018-07-22T19:57:04.546Z,16.20
2018-07-22T19:59:35.160Z,17.10
2018-07-22T20:02:06.080Z,15.90
2018-07-22T20:04:36.461Z,16.80
2018-07-22T20:07:06.743Z,15.83
2018-07-22T20:09:36.545Z,15.77
2018-07-22T20:12:07.996Z,15.87
2018-07-22T20:14:38.645Z,16.20
2018-07-22T20:17:08.203Z,17.57
2018-07-22T20:19:38.818Z,17.97
2018-07-22T20:22:10.022Z,17.13
2018-07-22T20:24:40.866Z,17.30
2018-07-22T20:27:12.241Z,17.10
2018-07-22T20:29:43.674Z,16.20
2018-07-22T20:32:15.121Z,15.53
2018-07-22T20:34:45.402Z,16.80
2018-07-22T20:37:16.873Z,15.67
2018-07-22T20:39:48.312Z,15.83
2018-07-22T20:42:19.022Z,17.00
2018-07-22T20:44:50.247Z,17.40
2018-07-22T20:47:20.706Z,15.50
2018-07-22T20:49:51.338Z,16.43
2018-07-22T20:52:21.543Z,17.97
2018-07-22T20:54:52.097Z,15.90
2018-07-22T20:57:23.026Z,17.07
2018-07-22T20:59:53.740Z,16.07
2018-07-22T21:02:24.450Z,16.57
2018-07-22T21:04:54.939Z,15.83
2018-07-22T21:07:25.753Z,15.80
2018-07-22T21:09:56.935Z,15.80
2018-07-22T21:12:52.357Z,15.97
2018-07-22T21:15:22.964Z,16.37
2018-07-22T21:17:53.569Z,16.70
2018-07-22T21:20:24.106Z,16.07
2018-07-22T21:22:54.588Z,15.40
2018-07-22T21:25:25.221Z,15.17
2018-07-22T21:27:56.174Z,16.20
2018-07-22T21:30:26.799Z,14.70
2018-07-22T21:32:57.717Z,17.30
2018-07-22T21:35:28.401Z,16.57
2018-07-22T21:37:59.117Z,16.60
2018-07-22T21:40:29.750Z,15.00
2018-07-22T21:43:00.540Z,15.67
2018-07-22T21:45:31.111Z,17.60
2018-07-22T21:48:02.283Z,15.93
2018-07-22T21:50:33.486Z,15.33
2018-07-22T21:53:04.290Z,16.13
2018-07-22T21:55:34.473Z,16.37
2018-07-22T21:58:05.070Z,15.60
2018-07-22T22:00:40.302Z,15.70
2018-07-22T22:03:10.680Z,14.60
2018-07-22T22:05:40.993Z,16.93
2018-07-22T22:08:12.209Z,15.53
2018-07-22T22:10:42.711Z,16.17
2018-07-22T22:13:13.001Z,15.90
2018-07-22T22:15:43.571Z,17.20
2018-07-22T22:18:14.439Z,15.40
2018-07-22T22:20:44.884Z,16.30
2018-07-22T22:23:15.019Z,15.40
2018-07-22T22:25:45.692Z,17.10
2018-07-22T22:28:17.261Z,16.07
2018-07-22T22:30:47.590Z,17.17
2018-07-22T22:33:18.086Z,16.03
2018-07-22T22:35:48.436Z,15.00
2018-07-22T22:38:18.775Z,15.67
2018-07-22T22:40:49.607Z,16.33
2018-07-22T22:43:20.359Z,16.07
2018-07-22T22:45:50.933Z,15.30
2018-07-22T22:48:21.025Z,16.37
2018-07-22T22:50:51.486Z,16.53
2018-07-22T22:53:21.995Z,15.83
2018-07-22T22:55:52.798Z,18.83
2018-07-22T22:58:33.423Z,15.97
2018-07-22T23:01:03.689Z,16.63
2018-07-22T23:03:33.794Z,15.73
2018-07-22T23:06:04.086Z,15.60
2018-07-22T23:08:34.081Z,16.13
2018-07-22T23:11:04.765Z,16.40
2018-07-22T23:13:35.200Z,14.80
2018-07-22T23:16:07.370Z,16.30
2018-07-22T23:18:37.665Z,15.73
2018-07-22T23:21:08.313Z,15.20
2018-07-22T23:23:38.401Z,15.00
2018-07-22T23:26:08.825Z,14.23
2018-07-22T23:28:38.894Z,16.07
2018-07-22T23:31:08.418Z,14.20
2018-07-22T23:33:38.680Z,13.50
2018-07-22T23:36:08.881Z,13.67
2018-07-22T23:38:39.102Z,14.93
2018-07-22T23:41:09.119Z,18.77
2018-07-22T23:43:39.430Z,16.30
2018-07-22T23:46:10.767Z,15.80
2018-07-22T23:48:40.682Z,14.67
2018-07-22T23:51:10.488Z,15.47
2018-07-22T23:53:40.574Z,15.30
2018-07-22T23:56:10.688Z,14.13
2018-07-22T23:58:40.914Z,14.33
